createdAt,value
2022-10-23T00:00:28.281Z,14.83
2022-10-23T00:01:28.271Z,14.84
2022-10-23T00:02:28.388Z,14.86
2022-10-23T00:03:28.211Z,14.83
2022-10-23T00:04:28.190Z,14.86
2022-10-23T00:05:28.182Z,14.84
2022-10-23T00:06:28.181Z,14.86
2022-10-23T00:07:28.152Z,14.84
2022-10-23T00:08:28.142Z,14.86
2022-10-23T00:09:28.122Z,14.84
2022-10-23T00:10:28.103Z,14.81
2022-10-23T00:11:28.113Z,14.80
2022-10-23T00:12:28.084Z,14.78
2022-10-23T00:13:28.073Z,14.80
2022-10-23T00:14:28.055Z,14.81
2022-10-23T00:15:28.044Z,14.80
2022-10-23T00:16:28.052Z,14.81
2022-10-23T00:17:28.013Z,14.80
2022-10-23T00:18:28.003Z,14.78
2022-10-23T00:19:27.992Z,14.75
2022-10-23T00:20:27.974Z,14.78
2022-10-23T00:21:27.983Z,14.75
2022-10-23T00:22:27.954Z,14.74
2022-10-23T00:23:27.946Z,14.75
2022-10-23T00:24:27.915Z,14.74
2022-10-23T00:25:27.905Z,14.72
2022-10-23T00:26:27.904Z,14.74
2022-10-23T00:27:27.883Z,14.72
2022-10-23T00:28:27.879Z,14.71
2022-10-23T00:29:27.855Z,14.69
2022-10-23T00:30:27.836Z,14.69
2022-10-23T00:31:27.836Z,14.71
2022-10-23T00:32:27.841Z,14.67
2022-10-23T00:33:27.797Z,14.69
2022-10-23T00:34:27.795Z,14.68
2022-10-23T00:35:27.769Z,14.67
2022-10-23T00:36:27.767Z,14.67
2022-10-23T00:37:27.748Z,14.67
2022-10-23T00:38:27.737Z,14.68
2022-10-23T00:39:27.717Z,14.68
2022-10-23T00:40:27.699Z,14.67
2022-10-23T00:41:27.707Z,14.67
2022-10-23T00:42:27.667Z,14.65
2022-10-23T00:43:27.658Z,14.67
2022-10-23T00:44:27.649Z,14.68
2022-10-23T00:45:27.641Z,14.65
2022-10-23T00:46:27.636Z,14.62
2022-10-23T00:47:27.609Z,14.64
2022-10-23T00:48:27.589Z,14.61
2022-10-23T00:49:27.580Z,14.62
2022-10-23T00:50:27.577Z,14.64
2022-10-23T00:51:27.561Z,14.60
2022-10-23T00:52:27.540Z,14.61
2022-10-23T00:53:27.530Z,14.62
2022-10-23T00:54:27.519Z,14.67
2022-10-23T00:55:27.520Z,14.65
2022-10-23T00:56:27.489Z,14.65
2022-10-23T00:58:27.465Z,14.65
2022-10-23T00:59:27.456Z,14.65
2022-10-23T01:00:27.455Z,14.64
2022-10-23T01:01:27.502Z,14.61
2022-10-23T01:02:27.444Z,14.61
2022-10-23T01:03:27.394Z,14.57
2022-10-23T01:04:27.371Z,14.60
2022-10-23T01:05:27.391Z,14.62
2022-10-23T01:06:27.341Z,14.61
2022-10-23T01:07:27.358Z,14.62
2022-10-23T01:08:27.314Z,14.62
2022-10-23T01:09:27.304Z,14.57
2022-10-23T01:10:27.312Z,14.53
2022-10-23T01:11:27.302Z,14.52
2022-10-23T01:12:27.263Z,14.50
2022-10-23T01:13:27.263Z,14.52
2022-10-23T01:14:27.233Z,14.49
2022-10-23T01:15:27.242Z,14.50
2022-10-23T01:16:27.226Z,14.50
2022-10-23T01:17:27.204Z,14.52
2022-10-23T01:18:27.183Z,14.49
2022-10-23T01:19:27.195Z,14.47
2022-10-23T01:20:27.199Z,14.50
2022-10-23T01:21:27.152Z,14.49
2022-10-23T01:22:27.127Z,14.50
2022-10-23T01:23:27.127Z,14.49
2022-10-23T01:24:27.104Z,14.50
2022-10-23T01:25:27.125Z,14.50
2022-10-23T01:26:27.075Z,14.50
2022-10-23T01:27:27.066Z,14.53
2022-10-23T01:28:27.050Z,14.53
2022-10-23T01:29:27.039Z,14.52
2022-10-23T01:30:27.035Z,14.52
2022-10-23T01:31:27.006Z,14.54
2022-10-23T01:32:26.986Z,14.57
2022-10-23T01:33:26.984Z,14.54
2022-10-23T01:34:26.970Z,14.56
2022-10-23T01:35:26.966Z,14.54
2022-10-23T01:36:26.936Z,14.54
2022-10-23T01:37:26.928Z,14.54
2022-10-23T01:38:26.907Z,14.54
2022-10-23T01:39:26.918Z,14.57
2022-10-23T01:40:26.900Z,14.54
2022-10-23T01:41:26.871Z,14.56
2022-10-23T01:42:26.857Z,14.60
2022-10-23T01:43:26.847Z,14.60
2022-10-23T01:44:26.828Z,14.61
2022-10-23T01:45:26.828Z,14.60
2022-10-23T01:46:26.799Z,14.56
2022-10-23T01:47:26.814Z,14.56
2022-10-23T01:48:26.786Z,14.57
2022-10-23T01:49:26.761Z,14.56
2022-10-23T01:50:26.767Z,14.56
2022-10-23T01:51:26.734Z,14.54
2022-10-23T01:52:26.719Z,14.54
2022-10-23T01:53:26.711Z,14.54
2022-10-23T01:54:26.690Z,14.53
2022-10-23T01:55:26.700Z,14.53
2022-10-23T01:56:26.661Z,14.54
2022-10-23T01:57:26.696Z,14.52
2022-10-23T01:58:26.639Z,14.52
2022-10-23T01:59:26.640Z,14.52
2022-10-23T02:00:26.621Z,14.52
2022-10-23T02:01:26.647Z,14.50
2022-10-23T02:02:26.643Z,14.52
2022-10-23T02:03:26.580Z,14.50
2022-10-23T02:04:26.551Z,14.50
2022-10-23T02:05:26.562Z,14.54
2022-10-23T02:06:26.521Z,14.56
2022-10-23T02:07:26.521Z,14.57
2022-10-23T02:08:26.492Z,14.53
2022-10-23T02:09:26.493Z,14.53
2022-10-23T02:10:26.500Z,14.57
2022-10-23T02:11:26.463Z,14.60
2022-10-23T02:13:26.443Z,14.56
2022-10-23T02:14:26.413Z,14.53
2022-10-23T02:15:26.423Z,14.56
2022-10-23T02:16:26.403Z,14.54
2022-10-23T02:17:26.382Z,14.57
2022-10-23T02:18:26.364Z,14.53
2022-10-23T02:19:26.361Z,14.54
2022-10-23T02:20:26.355Z,14.54
2022-10-23T02:21:26.325Z,14.56
2022-10-23T02:22:26.306Z,14.54
2022-10-23T02:23:26.304Z,14.54
2022-10-23T02:24:26.283Z,14.56
2022-10-23T02:25:26.293Z,14.54
2022-10-23T02:26:26.278Z,14.53
2022-10-23T02:27:26.246Z,14.57
2022-10-23T02:28:26.225Z,14.60
2022-10-23T02:29:26.242Z,14.61
2022-10-23T02:30:26.216Z,14.56
2022-10-23T02:31:26.194Z,14.56
2022-10-23T02:32:26.167Z,14.56
2022-10-23T02:33:26.163Z,14.56
2022-10-23T02:34:26.153Z,14.60
2022-10-23T02:35:26.149Z,14.57
2022-10-23T02:36:26.120Z,14.57
2022-10-23T02:37:26.109Z,14.60
2022-10-23T02:38:26.087Z,14.60
2022-10-23T02:39:26.078Z,14.61
2022-10-23T02:40:26.089Z,14.62
2022-10-23T02:41:26.047Z,14.62
2022-10-23T02:42:26.038Z,14.62
2022-10-23T02:43:26.036Z,14.64
2022-10-23T02:44:26.008Z,14.64
2022-10-23T02:45:26.019Z,14.64
2022-10-23T02:46:25.979Z,14.64
2022-10-23T02:47:25.971Z,14.61
2022-10-23T02:48:25.959Z,14.62
2022-10-23T02:49:25.958Z,14.60
2022-10-23T02:50:25.943Z,14.60
2022-10-23T02:51:25.919Z,14.56
2022-10-23T02:52:25.930Z,14.57
2022-10-23T02:53:25.901Z,14.56
2022-10-23T02:54:25.878Z,14.52
2022-10-23T02:55:25.900Z,14.50
2022-10-23T02:56:25.848Z,14.49
2022-10-23T02:57:25.831Z,14.49
2022-10-23T02:58:25.823Z,14.49
2022-10-23T02:59:25.811Z,14.49
2022-10-23T03:00:25.813Z,14.47
2022-10-23T03:01:25.955Z,14.49
2022-10-23T03:02:26.047Z,14.46
2022-10-23T03:03:25.760Z,14.47
2022-10-23T03:04:25.753Z,14.46
2022-10-23T03:05:25.754Z,14.47
2022-10-23T03:06:25.710Z,14.49
2022-10-23T03:07:25.702Z,14.49
2022-10-23T03:08:25.683Z,14.49
2022-10-23T03:09:25.676Z,14.53
2022-10-23T03:10:25.674Z,14.50
2022-10-23T03:11:25.652Z,14.49
2022-10-23T03:12:25.633Z,14.50
2022-10-23T03:13:25.624Z,14.47
2022-10-23T03:14:25.605Z,14.50
2022-10-23T03:15:25.604Z,14.47
2022-10-23T03:16:25.577Z,14.52
2022-10-23T03:17:25.564Z,14.49
2022-10-23T03:18:25.553Z,14.46
2022-10-23T03:19:25.543Z,14.47
2022-10-23T03:20:25.534Z,14.50
2022-10-23T03:21:25.512Z,14.50
2022-10-23T03:22:25.495Z,14.49
2022-10-23T03:23:25.487Z,14.49
2022-10-23T03:24:25.467Z,14.52
2022-10-23T03:25:25.478Z,14.53
2022-10-23T03:26:25.435Z,14.54
2022-10-23T03:27:25.495Z,14.52
2022-10-23T03:28:25.414Z,14.57
2022-10-23T03:29:25.406Z,14.56
2022-10-23T03:30:25.397Z,14.60
2022-10-23T03:31:25.375Z,14.56
2022-10-23T03:32:25.358Z,14.57
2022-10-23T03:33:25.348Z,14.57
2022-10-23T03:34:25.328Z,14.60
2022-10-23T03:35:25.336Z,14.56
2022-10-23T03:36:25.304Z,14.57
2022-10-23T03:37:25.305Z,14.54
2022-10-23T03:38:25.278Z,14.56
2022-10-23T03:39:25.269Z,14.57
2022-10-23T03:40:25.259Z,14.56
2022-10-23T03:41:25.247Z,14.56
2022-10-23T03:42:25.219Z,14.57
2022-10-23T03:43:25.208Z,14.56
2022-10-23T03:44:25.209Z,14.53
2022-10-23T03:45:25.199Z,14.56
2022-10-23T03:46:25.169Z,14.57
2022-10-23T03:47:25.160Z,14.54
2022-10-23T03:48:25.139Z,14.54
2022-10-23T03:49:25.147Z,14.54
2022-10-23T03:50:25.129Z,14.57
2022-10-23T03:51:25.100Z,14.56
2022-10-23T03:53:25.082Z,14.60
2022-10-23T03:54:25.071Z,14.54
2022-10-23T03:55:25.061Z,14.56
2022-10-23T03:56:25.028Z,14.54
2022-10-23T03:57:25.022Z,14.53
2022-10-23T03:58:25.001Z,14.50
2022-10-23T03:59:25.001Z,14.52
2022-10-23T04:00:25.003Z,14.50
2022-10-23T04:01:25.012Z,14.50
2022-10-23T04:02:25.032Z,14.50
2022-10-23T04:03:24.942Z,14.52
2022-10-23T04:04:24.912Z,14.49
2022-10-23T04:05:24.925Z,14.47
2022-10-23T04:06:24.892Z,14.50
2022-10-23T04:07:24.902Z,14.52
2022-10-23T04:08:24.873Z,14.53
2022-10-23T04:09:24.874Z,14.52
2022-10-23T04:10:24.863Z,14.54
2022-10-23T04:11:24.823Z,14.54
2022-10-23T04:12:24.814Z,14.56
2022-10-23T04:13:24.793Z,14.56
2022-10-23T04:14:24.801Z,14.56
2022-10-23T04:15:24.787Z,14.61
2022-10-23T04:16:24.764Z,14.54
2022-10-23T04:17:24.767Z,14.52
2022-10-23T04:18:24.735Z,14.53
2022-10-23T04:19:24.716Z,14.50
2022-10-23T04:20:24.728Z,14.54
2022-10-23T04:21:24.716Z,14.53
2022-10-23T04:22:27.501Z,14.53
2022-10-23T04:23:24.666Z,14.52
2022-10-23T04:24:24.657Z,14.50
2022-10-23T04:25:24.658Z,14.46
2022-10-23T04:26:24.626Z,14.50
2022-10-23T04:27:24.613Z,14.47
2022-10-23T04:28:24.626Z,14.50
2022-10-23T04:29:24.589Z,14.52
2022-10-23T04:30:24.590Z,14.49
2022-10-23T04:31:24.548Z,14.49
2022-10-23T04:32:24.587Z,14.47
2022-10-23T04:33:24.526Z,14.54
2022-10-23T04:34:24.526Z,14.52
2022-10-23T04:35:24.517Z,14.54
2022-10-23T04:36:24.498Z,14.53
2022-10-23T04:37:24.476Z,14.57
2022-10-23T04:38:24.466Z,14.57
2022-10-23T04:39:24.457Z,14.60
2022-10-23T04:40:24.448Z,14.61
2022-10-23T04:41:24.418Z,14.60
2022-10-23T04:42:24.459Z,14.61
2022-10-23T04:43:24.397Z,14.61
2022-10-23T04:44:24.379Z,14.60
2022-10-23T04:45:24.379Z,14.62
2022-10-23T04:46:24.350Z,14.60
2022-10-23T04:47:24.352Z,14.61
2022-10-23T04:48:26.929Z,14.57
2022-10-23T04:49:24.312Z,14.54
2022-10-23T04:50:24.320Z,14.57
2022-10-23T04:51:24.282Z,14.61
2022-10-23T04:52:24.281Z,14.61
2022-10-23T04:53:24.259Z,14.60
2022-10-23T04:54:24.241Z,14.61
2022-10-23T04:55:24.260Z,14.60
2022-10-23T04:56:24.221Z,14.60
2022-10-23T04:57:24.204Z,14.61
2022-10-23T04:58:24.192Z,14.62
2022-10-23T04:59:24.172Z,14.60
2022-10-23T05:00:24.191Z,14.61
2022-10-23T05:01:24.261Z,14.57
2022-10-23T05:02:24.132Z,14.60
2022-10-23T05:03:24.125Z,14.53
2022-10-23T05:04:24.113Z,14.60
2022-10-23T05:05:24.113Z,14.60
2022-10-23T05:06:24.085Z,14.56
2022-10-23T05:07:24.066Z,14.54
2022-10-23T05:08:24.068Z,14.57
2022-10-23T05:09:24.044Z,14.60
2022-10-23T05:10:24.045Z,14.60
2022-10-23T05:11:24.014Z,14.57
2022-10-23T05:12:24.005Z,14.57
2022-10-23T05:13:23.984Z,14.54
2022-10-23T05:14:23.973Z,14.56
2022-10-23T05:16:19.424Z,14.62
2022-10-23T05:17:19.385Z,14.60
2022-10-23T05:18:19.383Z,14.60
2022-10-23T05:19:21.985Z,14.54
2022-10-23T05:20:19.352Z,14.56
2022-10-23T05:21:19.355Z,14.54
2022-10-23T05:22:19.465Z,14.53
2022-10-23T05:23:19.305Z,14.56
2022-10-23T05:24:19.296Z,14.54
2022-10-23T05:25:19.281Z,14.56
2022-10-23T05:26:19.286Z,14.53
2022-10-23T05:27:19.254Z,14.53
2022-10-23T05:28:19.248Z,14.53
2022-10-23T05:29:19.226Z,14.54
2022-10-23T05:30:19.216Z,14.54
2022-10-23T05:31:19.239Z,14.54
2022-10-23T05:32:19.190Z,14.54
2022-10-23T05:33:19.177Z,14.53
2022-10-23T05:34:19.166Z,14.52
2022-10-23T05:35:19.147Z,14.50
2022-10-23T05:36:19.157Z,14.47
2022-10-23T05:37:19.117Z,14.47
2022-10-23T05:38:19.115Z,14.44
2022-10-23T05:39:19.098Z,14.39
2022-10-23T05:40:19.106Z,14.37
2022-10-23T05:41:19.073Z,14.37
2022-10-23T05:42:19.059Z,14.37
2022-10-23T05:43:19.038Z,14.37
2022-10-23T05:44:19.028Z,14.37
2022-10-23T05:45:19.021Z,14.35
2022-10-23T05:46:19.008Z,14.37
2022-10-23T05:47:18.990Z,14.35
2022-10-23T05:48:30.039Z,14.34
2022-10-23T05:49:19.961Z,14.32
2022-10-23T05:50:19.130Z,14.34
2022-10-23T05:51:18.930Z,14.31
2022-10-23T05:52:18.927Z,14.34
2022-10-23T05:53:18.900Z,14.31
2022-10-23T05:54:18.898Z,14.32
2022-10-23T05:55:18.881Z,14.32
2022-10-23T05:56:18.881Z,14.35
2022-10-23T05:57:18.860Z,14.34
2022-10-23T05:58:18.855Z,14.34
2022-10-23T05:59:21.988Z,14.35
2022-10-23T06:00:18.821Z,14.35
2022-10-23T06:01:18.873Z,14.34
2022-10-23T06:02:18.807Z,14.37
2022-10-23T06:03:18.772Z,14.35
2022-10-23T06:04:18.763Z,14.31
2022-10-23T06:05:18.744Z,14.34
2022-10-23T06:06:18.752Z,14.35
2022-10-23T06:07:18.724Z,14.34
2022-10-23T06:08:18.713Z,14.34
2022-10-23T06:09:18.693Z,14.32
2022-10-23T06:10:18.682Z,14.37
2022-10-23T06:11:18.683Z,14.35
2022-10-23T06:12:18.654Z,14.34
2022-10-23T06:13:18.634Z,14.37
2022-10-23T06:14:18.632Z,14.38
2022-10-23T06:15:18.613Z,14.34
2022-10-23T06:16:18.624Z,14.38
2022-10-23T06:17:18.594Z,14.37
2022-10-23T06:18:18.576Z,14.37
2022-10-23T06:19:18.567Z,14.37
2022-10-23T06:20:18.555Z,14.37
2022-10-23T06:21:18.554Z,14.39
2022-10-23T06:23:18.507Z,14.38
2022-10-23T06:24:18.486Z,14.39
2022-10-23T06:25:18.486Z,14.38
2022-10-23T06:26:18.475Z,14.39
2022-10-23T06:27:18.457Z,14.38
2022-10-23T06:28:20.601Z,14.39
2022-10-23T06:29:18.439Z,14.39
2022-10-23T06:30:18.406Z,14.37
2022-10-23T06:31:18.426Z,14.42
2022-10-23T06:32:18.387Z,14.42
2022-10-23T06:33:18.379Z,14.39
2022-10-23T06:34:18.356Z,14.42
2022-10-23T06:35:18.362Z,14.42
2022-10-23T06:36:18.358Z,14.39
2022-10-23T06:37:18.372Z,14.39
2022-10-23T06:38:18.324Z,14.39
2022-10-23T06:39:18.290Z,14.47
2022-10-23T06:40:18.278Z,14.42
2022-10-23T06:41:18.306Z,14.43
2022-10-23T06:42:18.254Z,14.43
2022-10-23T06:43:18.239Z,14.42
2022-10-23T06:44:18.408Z,14.44
2022-10-23T06:45:18.219Z,14.44
2022-10-23T06:46:18.210Z,14.46
2022-10-23T06:48:18.169Z,14.46
2022-10-23T06:49:18.169Z,14.50
2022-10-23T06:50:18.141Z,14.53
2022-10-23T06:51:18.152Z,14.54
2022-10-23T06:52:41.617Z,14.54
2022-10-23T06:53:19.110Z,14.56
2022-10-23T06:54:18.101Z,14.50
2022-10-23T06:55:18.080Z,14.56
2022-10-23T06:56:18.091Z,14.54
2022-10-23T06:57:18.057Z,14.57
2022-10-23T06:58:18.042Z,14.65
2022-10-23T06:59:18.035Z,14.65
2022-10-23T07:00:18.023Z,14.68
2022-10-23T07:01:18.189Z,14.67
2022-10-23T07:02:17.982Z,14.72
2022-10-23T07:03:17.983Z,14.71
2022-10-23T07:04:17.961Z,14.75
2022-10-23T07:05:17.972Z,14.80
2022-10-23T07:06:17.932Z,14.81
2022-10-23T07:07:17.923Z,14.81
2022-10-23T07:08:17.912Z,14.84
2022-10-23T07:09:17.894Z,14.86
2022-10-23T07:10:17.878Z,14.87
2022-10-23T07:11:17.892Z,14.86
2022-10-23T07:12:17.853Z,14.90
2022-10-23T07:13:17.845Z,14.93
2022-10-23T07:14:17.826Z,14.91
2022-10-23T07:15:17.814Z,14.98
2022-10-23T07:16:17.817Z,14.95
2022-10-23T07:17:17.786Z,15.01
2022-10-23T07:18:17.778Z,14.99
2022-10-23T07:19:17.767Z,15.01
2022-10-23T07:20:17.745Z,15.01
2022-10-23T07:21:17.745Z,15.02
2022-10-23T07:22:17.715Z,15.05
2022-10-23T07:23:17.709Z,15.06
2022-10-23T07:24:17.694Z,15.08
2022-10-23T07:25:17.688Z,15.08
2022-10-23T07:26:17.680Z,15.08
2022-10-23T07:27:17.657Z,15.09
2022-10-23T07:28:17.636Z,15.09
2022-10-23T07:29:17.627Z,15.11
2022-10-23T07:30:17.609Z,15.11
2022-10-23T07:31:17.618Z,15.13
2022-10-23T07:32:17.587Z,15.11
2022-10-23T07:33:17.579Z,15.12
2022-10-23T07:34:17.558Z,15.19
2022-10-23T07:35:17.566Z,15.21
2022-10-23T07:36:17.549Z,15.24
2022-10-23T07:37:17.529Z,15.27
2022-10-23T07:38:17.507Z,15.28
2022-10-23T07:39:17.497Z,15.33
2022-10-23T07:40:17.481Z,15.30
2022-10-23T07:41:17.479Z,15.36
2022-10-23T07:42:17.449Z,15.41
2022-10-23T07:43:17.441Z,15.42
2022-10-23T07:44:17.431Z,15.46
2022-10-23T07:45:17.417Z,15.46
2022-10-23T07:46:17.410Z,15.51
2022-10-23T07:47:17.397Z,15.51
2022-10-23T07:48:17.370Z,15.59
2022-10-23T07:49:17.363Z,15.60
2022-10-23T07:50:17.350Z,15.66
2022-10-23T07:51:17.358Z,15.68
2022-10-23T07:52:17.322Z,15.76
2022-10-23T07:53:17.315Z,15.79
2022-10-23T07:54:17.301Z,15.85
2022-10-23T07:55:17.283Z,15.88
2022-10-23T07:56:17.281Z,15.93
2022-10-23T07:57:17.252Z,16.01
2022-10-23T07:58:17.243Z,16.04
2022-10-23T07:59:17.231Z,16.14
2022-10-23T08:00:17.231Z,16.16
2022-10-23T08:01:17.265Z,16.23
2022-10-23T08:02:17.207Z,16.22
2022-10-23T08:03:17.174Z,16.27
2022-10-23T08:04:17.162Z,16.27
2022-10-23T08:05:17.193Z,16.31
2022-10-23T08:06:17.144Z,16.37
2022-10-23T08:07:17.125Z,16.40
2022-10-23T08:08:17.113Z,16.41
2022-10-23T08:09:17.098Z,16.48
2022-10-23T08:10:17.083Z,16.49
2022-10-23T08:11:17.076Z,16.52
2022-10-23T08:12:17.055Z,16.55
2022-10-23T08:13:17.046Z,16.56
2022-10-23T08:14:17.028Z,16.59
2022-10-23T08:15:17.017Z,16.63
2022-10-23T08:16:17.019Z,16.68
2022-10-23T08:17:16.995Z,16.73
2022-10-23T08:18:16.977Z,16.73
2022-10-23T08:19:17.031Z,16.78
2022-10-23T08:20:16.945Z,16.83
2022-10-23T08:21:16.954Z,16.83
2022-10-23T08:22:16.920Z,16.88
2022-10-23T08:23:16.910Z,16.92
2022-10-23T08:24:16.890Z,16.96
2022-10-23T08:25:17.726Z,16.96
2022-10-23T08:26:16.883Z,17.06
2022-10-23T08:27:16.848Z,17.10
2022-10-23T08:28:16.842Z,17.10
2022-10-23T08:29:16.826Z,17.14
2022-10-23T08:30:16.808Z,17.17
2022-10-23T08:31:16.820Z,17.20
2022-10-23T08:32:16.789Z,17.20
2022-10-23T08:33:16.776Z,17.29
2022-10-23T08:34:16.749Z,17.26
2022-10-23T08:35:16.763Z,17.23
2022-10-23T08:36:16.835Z,17.23
2022-10-23T08:37:16.720Z,17.23
2022-10-23T08:38:16.707Z,17.23
2022-10-23T08:39:16.691Z,17.28
2022-10-23T08:40:16.672Z,17.29
2022-10-23T08:41:16.682Z,17.30
2022-10-23T08:42:16.658Z,17.30
2022-10-23T08:43:16.643Z,17.32
2022-10-23T08:44:16.631Z,17.38
2022-10-23T08:45:16.616Z,17.44
2022-10-23T08:46:16.612Z,17.46
2022-10-23T08:47:16.591Z,17.48
2022-10-23T08:48:16.574Z,17.57
2022-10-23T08:49:16.563Z,17.66
2022-10-23T08:50:16.613Z,17.71
2022-10-23T08:51:16.553Z,17.71
2022-10-23T08:52:16.521Z,17.73
2022-10-23T08:53:16.508Z,17.79
2022-10-23T08:54:16.495Z,17.84
2022-10-23T08:55:16.483Z,17.81
2022-10-23T08:56:16.485Z,17.76
2022-10-23T08:57:16.455Z,17.82
2022-10-23T08:58:16.435Z,17.82
2022-10-23T08:59:16.435Z,17.87
2022-10-23T09:00:16.418Z,17.87
2022-10-23T09:01:16.588Z,17.85
2022-10-23T09:02:16.449Z,17.87
2022-10-23T09:03:16.378Z,17.88
2022-10-23T09:04:16.370Z,17.87
2022-10-23T09:05:16.355Z,17.87
2022-10-23T09:06:16.356Z,17.91
2022-10-23T09:07:16.328Z,17.89
2022-10-23T09:08:16.318Z,17.95
2022-10-23T09:09:16.317Z,18.02
2022-10-23T09:10:16.291Z,18.04
2022-10-23T09:11:16.294Z,18.04
2022-10-23T09:12:16.258Z,18.10
2022-10-23T09:13:16.248Z,18.13
2022-10-23T09:14:16.240Z,18.12
2022-10-23T09:15:16.218Z,18.12
2022-10-23T09:16:16.223Z,18.15
2022-10-23T09:17:16.222Z,18.15
2022-10-23T09:18:16.178Z,18.17
2022-10-23T09:19:16.172Z,18.15
2022-10-23T09:20:16.151Z,18.15
2022-10-23T09:21:16.158Z,18.21
2022-10-23T09:22:16.119Z,18.24
2022-10-23T09:23:16.120Z,18.25
2022-10-23T09:24:16.101Z,18.24
2022-10-23T09:25:16.090Z,18.22
2022-10-23T09:26:16.091Z,18.21
2022-10-23T09:27:16.060Z,18.21
2022-10-23T09:28:16.051Z,18.21
2022-10-23T09:29:16.031Z,18.19
2022-10-23T09:30:16.011Z,18.18
2022-10-23T09:31:16.055Z,18.22
2022-10-23T09:32:16.004Z,18.24
2022-10-23T09:33:15.993Z,18.28
2022-10-23T09:34:15.990Z,18.34
2022-10-23T09:35:15.976Z,18.33
2022-10-23T09:36:15.945Z,18.37
2022-10-23T09:37:15.935Z,18.31
2022-10-23T09:38:15.925Z,18.33
2022-10-23T09:39:15.939Z,18.28
2022-10-23T09:40:15.906Z,18.33
2022-10-23T09:41:15.901Z,18.34
2022-10-23T09:42:15.855Z,18.39
2022-10-23T09:43:15.846Z,18.37
2022-10-23T09:44:15.833Z,18.39
2022-10-23T09:45:15.870Z,18.46
2022-10-23T09:46:15.806Z,18.50
2022-10-23T09:47:15.796Z,18.54
2022-10-23T09:48:15.820Z,18.50
2022-10-23T09:49:15.768Z,18.54
2022-10-23T09:50:15.796Z,18.55
2022-10-23T09:51:15.748Z,18.58
2022-10-23T09:52:15.718Z,18.64
2022-10-23T09:53:15.724Z,18.67
2022-10-23T09:54:15.689Z,18.72
2022-10-23T09:55:15.698Z,18.68
2022-10-23T09:56:15.665Z,18.68
2022-10-23T09:57:15.659Z,18.72
2022-10-23T09:58:15.695Z,18.77
2022-10-23T09:59:15.629Z,18.83
2022-10-23T10:00:15.641Z,18.86
2022-10-23T10:01:15.681Z,18.90
2022-10-23T10:02:15.646Z,18.86
2022-10-23T10:03:15.580Z,18.91
2022-10-23T10:04:15.563Z,18.90
2022-10-23T10:05:15.571Z,18.84
2022-10-23T10:06:15.531Z,18.80
2022-10-23T10:07:15.529Z,18.82
2022-10-23T10:08:15.501Z,18.84
2022-10-23T10:09:15.504Z,18.87
2022-10-23T10:10:15.492Z,18.94
2022-10-23T10:11:15.472Z,18.91
2022-10-23T10:12:15.453Z,18.92
2022-10-23T10:13:15.442Z,18.95
2022-10-23T10:14:15.421Z,18.95
2022-10-23T10:15:15.432Z,18.97
2022-10-23T10:16:15.404Z,18.97
2022-10-23T10:17:15.384Z,18.97
2022-10-23T10:18:15.375Z,18.98
2022-10-23T10:19:15.361Z,18.97
2022-10-23T10:20:15.364Z,18.94
2022-10-23T10:21:15.346Z,18.92
2022-10-23T10:22:15.325Z,18.90
2022-10-23T10:23:15.313Z,18.90
2022-10-23T10:24:15.296Z,18.86
2022-10-23T10:25:15.304Z,18.84
2022-10-23T10:26:15.277Z,18.86
2022-10-23T10:27:15.257Z,18.84
2022-10-23T10:28:15.239Z,18.95
2022-10-23T10:29:15.235Z,18.98
2022-10-23T10:30:15.238Z,19.05
2022-10-23T10:31:15.207Z,19.06
2022-10-23T10:32:15.198Z,19.08
2022-10-23T10:33:15.168Z,19.17
2022-10-23T10:34:15.179Z,19.18
2022-10-23T10:35:15.166Z,19.20
2022-10-23T10:36:15.185Z,19.20
2022-10-23T10:37:15.120Z,19.14
2022-10-23T10:38:15.109Z,19.13
2022-10-23T10:39:15.102Z,19.10
2022-10-23T10:40:15.158Z,19.11
2022-10-23T10:41:15.076Z,19.05
2022-10-23T10:42:15.059Z,19.06
2022-10-23T10:43:15.034Z,19.10
2022-10-23T10:44:15.030Z,19.10
2022-10-23T10:45:15.029Z,19.08
2022-10-23T10:47:17.240Z,19.08
2022-10-23T10:48:15.983Z,19.13
2022-10-23T10:49:14.961Z,19.18
2022-10-23T10:50:15.056Z,19.24
2022-10-23T10:51:14.931Z,19.31
2022-10-23T10:52:14.934Z,19.31
2022-10-23T10:53:14.912Z,19.28
2022-10-23T10:54:14.902Z,19.28
2022-10-23T10:55:14.904Z,19.23
2022-10-23T10:56:14.878Z,19.24
2022-10-23T10:57:14.868Z,19.24
2022-10-23T10:58:14.846Z,19.18
2022-10-23T10:59:14.834Z,19.20
2022-10-23T11:00:14.929Z,19.18
2022-10-23T11:01:14.916Z,19.21
2022-10-23T11:02:14.991Z,19.15
2022-10-23T11:03:14.778Z,19.11
2022-10-23T11:04:14.777Z,19.10
2022-10-23T11:05:14.765Z,19.06
2022-10-23T11:06:14.737Z,19.06
2022-10-23T11:07:14.726Z,19.05
2022-10-23T11:08:14.709Z,19.10
2022-10-23T11:09:20.257Z,19.10
2022-10-23T11:10:15.727Z,19.11
2022-10-23T11:11:14.672Z,19.08
2022-10-23T11:12:14.683Z,19.08
2022-10-23T11:13:14.638Z,19.01
2022-10-23T11:14:14.660Z,18.98
2022-10-23T11:15:14.635Z,18.98
2022-10-23T11:17:24.422Z,19.10
2022-10-23T11:18:24.396Z,19.08
2022-10-23T11:19:24.376Z,19.14
2022-10-23T11:20:24.385Z,19.14
2022-10-23T11:21:24.347Z,19.15
2022-10-23T11:22:24.346Z,19.18
2022-10-23T11:23:24.326Z,19.15
2022-10-23T11:24:24.339Z,19.15
2022-10-23T11:25:24.301Z,19.15
2022-10-23T11:26:24.300Z,19.11
2022-10-23T11:27:24.269Z,19.11
2022-10-23T11:28:24.259Z,19.17
2022-10-23T11:29:24.249Z,19.13
2022-10-23T11:30:24.253Z,19.13
2022-10-23T11:31:24.209Z,19.13
2022-10-23T11:32:24.263Z,19.13
2022-10-23T11:33:24.194Z,19.11
2022-10-23T11:34:24.186Z,19.11
2022-10-23T11:35:24.174Z,19.06
2022-10-23T11:36:24.151Z,19.06
2022-10-23T11:37:24.131Z,19.08
2022-10-23T11:38:24.120Z,19.05
2022-10-23T11:39:24.121Z,19.05
2022-10-23T11:40:24.126Z,19.05
2022-10-23T11:41:26.679Z,19.05
2022-10-23T11:42:24.070Z,19.06
2022-10-23T11:43:24.054Z,19.05
2022-10-23T11:44:24.062Z,19.02
2022-10-23T11:45:24.038Z,18.99
2022-10-23T11:46:24.013Z,19.05
2022-10-23T11:47:24.000Z,19.08
2022-10-23T11:48:23.993Z,19.18
2022-10-23T11:49:23.974Z,19.29
2022-10-23T11:50:23.981Z,19.35
2022-10-23T11:51:23.943Z,19.46
2022-10-23T11:52:23.944Z,19.55
2022-10-23T11:53:23.936Z,19.55
2022-10-23T11:54:23.903Z,19.63
2022-10-23T11:55:23.914Z,19.61
2022-10-23T11:56:23.882Z,19.66
2022-10-23T11:57:23.883Z,19.63
2022-10-23T11:58:23.865Z,19.65
2022-10-23T11:59:23.836Z,19.73
2022-10-23T12:00:23.856Z,19.78
2022-10-23T12:01:23.882Z,19.88
2022-10-23T12:02:23.853Z,20.06
2022-10-23T12:03:23.786Z,20.21
2022-10-23T12:04:23.785Z,20.23
2022-10-23T12:05:23.787Z,20.20
2022-10-23T12:06:23.748Z,20.30
2022-10-23T12:07:23.737Z,20.35
2022-10-23T12:08:23.728Z,20.42
2022-10-23T12:09:23.709Z,20.38
2022-10-23T12:10:23.724Z,20.38
2022-10-23T12:11:26.820Z,20.42
2022-10-23T12:12:23.669Z,20.34
2022-10-23T12:13:23.650Z,20.39
2022-10-23T12:14:23.641Z,20.42
2022-10-23T12:15:23.659Z,20.42
2022-10-23T12:16:23.623Z,20.43
2022-10-23T12:17:23.600Z,20.47
2022-10-23T12:18:23.592Z,20.50
2022-10-23T12:19:23.571Z,20.42
2022-10-23T12:20:23.583Z,20.38
2022-10-23T12:21:23.552Z,20.34
2022-10-23T12:22:23.570Z,20.35
2022-10-23T12:23:23.525Z,20.31
2022-10-23T12:24:23.521Z,20.25
2022-10-23T12:25:23.503Z,20.13
2022-10-23T12:26:23.483Z,20.10
2022-10-23T12:27:23.475Z,20.13
2022-10-23T12:28:23.463Z,20.12
2022-10-23T12:29:23.474Z,20.06
2022-10-23T12:30:23.435Z,20.03
2022-10-23T12:31:23.415Z,19.98
2022-10-23T12:32:23.415Z,20.03
2022-10-23T12:33:23.395Z,19.98
2022-10-23T12:34:23.392Z,20.03
2022-10-23T12:35:23.384Z,20.06
2022-10-23T12:36:23.365Z,20.09
2022-10-23T12:37:23.347Z,20.16
2022-10-23T12:38:23.326Z,20.12
2022-10-23T12:39:23.320Z,20.16
2022-10-23T12:40:23.317Z,20.16
2022-10-23T12:41:23.288Z,20.18
2022-10-23T12:42:23.277Z,20.10
2022-10-23T12:43:23.268Z,20.13
2022-10-23T12:44:23.249Z,20.10
2022-10-23T12:45:23.259Z,20.06
2022-10-23T12:46:23.219Z,20.06
2022-10-23T12:47:23.209Z,20.02
2022-10-23T12:48:23.202Z,19.95
2022-10-23T12:49:23.198Z,19.95
2022-10-23T12:50:23.189Z,19.86
2022-10-23T12:51:23.160Z,19.83
2022-10-23T12:52:23.142Z,19.90
2022-10-23T12:53:23.131Z,19.87
2022-10-23T12:54:23.110Z,19.84
2022-10-23T12:55:23.121Z,19.88
2022-10-23T12:56:23.091Z,19.86
2022-10-23T12:57:23.094Z,19.83
2022-10-23T12:58:23.064Z,19.84
2022-10-23T12:59:23.064Z,19.87
2022-10-23T13:00:23.083Z,19.83